Time;durP1;ratioP1;P1;durP2;ratioP2;P2;SDS_P1;SDS_P2;PMS_P1;PMS_P2;Temp;Humidity;BMP_temperature;BMP_pressure;BME280_temperature;BME280_humidity;BME280_pressure;Samples;Min_cycle;Max_cycle;Signal;HPM_P1;HPM_P2
2022/05/17 00:01:38;;;;;;;3.13;1.30;;;;;;;18.40;50.90;101179.31;5035783;28;20439;-71
2022/05/17 00:04:05;;;;;;;5.83;1.60;;;;;;;18.39;50.79;101178.53;5035756;28;20478;-71
2022/05/17 00:06:31;;;;;;;0.90;0.70;;;;;;;18.40;50.28;101174.63;5035885;28;20490;-71
2022/05/17 00:08:58;;;;;;;1.70;0.90;;;;;;;18.43;49.73;101177.84;5035529;28;20581;-71
2022/05/17 00:11:25;;;;;;;2.13;1.43;;;;;;;18.44;49.98;101179.44;5035559;28;20960;-71
2022/05/17 00:13:53;;;;;;;1.37;0.97;;;;;;;18.46;50.28;101179.91;5035588;28;20853;-71
2022/05/17 00:16:19;;;;;;;2.33;1.50;;;;;;;18.45;50.21;101187.34;5035380;28;20478;-71
2022/05/17 00:18:46;;;;;;;2.13;1.17;;;;;;;18.46;50.58;101185.38;5035170;28;20933;-72
2022/05/17 00:21:13;;;;;;;1.40;0.90;;;;;;;18.48;50.57;101183.13;5035472;28;20447;-71
2022/05/17 00:23:41;;;;;;;3.83;0.90;;;;;;;18.45;50.52;101184.59;5035417;28;20451;-71
2022/05/17 00:26:08;;;;;;;16.43;1.80;;;;;;;18.35;50.53;101174.84;5035313;28;20554;-71
2022/05/17 00:28:35;;;;;;;1.97;1.00;;;;;;;18.31;49.52;101175.88;5035216;28;20491;-71
2022/05/17 00:31:06;;;;;;;1.20;0.70;;;;;;;18.27;49.65;101170.25;5035270;28;20442;-71
2022/05/17 00:33:33;;;;;;;2.80;1.47;;;;;;;18.22;50.14;101173.22;5035255;28;20455;-71
2022/05/17 00:35:59;;;;;;;3.07;0.90;;;;;;;18.25;50.11;101177.25;5035035;28;20462;-71
2022/05/17 00:38:26;;;;;;;1.83;1.00;;;;;;;18.25;50.55;101175.28;5035145;28;20485;-71
2022/05/17 00:40:53;;;;;;;1.90;1.23;;;;;;;18.23;51.28;101179.50;5035098;28;20447;-71
2022/05/17 00:43:30;;;;;;;3.43;1.17;;;;;;;18.23;50.59;101168.53;5035012;28;20452;-71
2022/05/17 00:46:00;;;;;;;1.73;1.40;;;;;;;18.25;50.13;101171.75;5034942;28;20458;-71
2022/05/17 00:48:28;;;;;;;5.40;1.27;;;;;;;18.29;51.17;101173.47;5035331;28;20466;-71
2022/05/17 00:50:56;;;;;;;2.47;1.30;;;;;;;18.31;51.70;101171.19;5034550;28;20991;-71
2022/05/17 00:53:27;;;;;;;4.00;1.43;;;;;;;18.29;52.08;101165.25;5034559;28;20979;-71
2022/05/17 00:55:56;;;;;;;1.73;1.00;;;;;;;18.33;50.94;101174.41;5034536;28;20495;-71
2022/05/17 00:58:26;;;;;;;1.87;1.00;;;;;;;18.30;50.96;101172.34;5034739;28;20435;-71
2022/05/17 01:01:02;;;;;;;7.30;1.83;;;;;;;18.31;52.09;101171.19;5034677;28;20442;-71
2022/05/17 01:03:33;;;;;;;1.93;1.13;;;;;;;18.32;51.67;101175.53;5034696;28;20485;-71
2022/05/17 01:06:02;;;;;;;1.40;0.90;;;;;;;18.33;52.36;101177.16;5034526;28;20470;-71
2022/05/17 01:08:29;;;;;;;5.20;1.00;;;;;;;18.33;53.61;101179.09;5034387;28;20536;-71
2022/05/17 01:10:56;;;;;;;3.00;1.10;;;;;;;18.30;54.08;101180.56;5034507;28;20440;-71
2022/05/17 01:16:06;;;;;;;2.90;1.20;;;;;;;18.23;57.11;101185.78;5034112;28;20478;-71
2022/05/17 01:18:38;;;;;;;2.40;1.20;;;;;;;18.21;57.50;101182.59;5034370;28;20845;-71
2022/05/17 01:21:06;;;;;;;1.97;1.20;;;;;;;18.20;59.28;101185.69;5034337;28;20434;-70
2022/05/17 01:23:33;;;;;;;2.90;1.27;;;;;;;18.16;63.03;101180.06;5034236;28;20458;-71
2022/05/17 01:26:00;;;;;;;4.17;1.23;;;;;;;18.12;67.18;101179.94;5033794;28;20903;-71
2022/05/17 01:28:28;;;;;;;4.20;1.87;;;;;;;17.97;69.02;101182.50;5034015;28;21014;-71
2022/05/17 01:31:03;;;;;;;2.03;1.20;;;;;;;17.81;70.93;101191.34;5034103;28;20496;-71
2022/05/17 01:33:32;;;;;;;2.70;1.53;;;;;;;17.62;72.06;101185.50;5034098;28;20488;-71
2022/05/17 01:35:58;;;;;;;3.37;1.10;;;;;;;17.48;73.64;101187.69;5033945;28;20498;-71
2022/05/17 01:38:26;;;;;;;3.60;1.40;;;;;;;17.30;75.89;101187.78;5033659;28;20945;-71
2022/05/17 01:40:52;;;;;;;1.37;1.20;;;;;;;17.09;78.88;101195.19;5034171;28;20443;-71
2022/05/17 01:43:19;;;;;;;4.60;1.40;;;;;;;16.88;82.23;101206.84;5033872;28;20450;-71
2022/05/17 01:45:46;;;;;;;2.53;1.67;;;;;;;16.44;87.40;101204.56;5033777;28;20448;-71
2022/05/17 01:48:12;;;;;;;4.33;1.13;;;;;;;16.12;89.92;101202.03;5033791;28;20486;-71
2022/05/17 01:50:39;;;;;;;3.47;1.30;;;;;;;15.87;93.66;101213.78;5033447;28;20956;-70
2022/05/17 01:53:07;;;;;;;3.20;1.43;;;;;;;15.71;95.49;101215.38;5033674;28;20488;-71
2022/05/17 01:55:35;;;;;;;2.70;1.60;;;;;;;15.59;98.26;101215.97;5033692;28;20431;-71
2022/05/17 01:58:01;;;;;;;2.57;1.40;;;;;;;15.51;99.25;101216.75;5033559;28;20446;-70
2022/05/17 02:00:28;;;;;;;3.47;1.50;;;;;;;15.37;100.00;101217.69;5033284;28;20945;-71
2022/05/17 02:02:54;;;;;;;1.60;1.40;;;;;;;15.35;100.00;101219.13;5033456;28;20795;-71
2022/05/17 02:05:22;;;;;;;3.73;1.60;;;;;;;15.26;100.00;101216.38;5033522;28;20466;-71
2022/05/17 02:07:50;;;;;;;2.67;1.60;;;;;;;15.28;100.00;101218.81;5032742;28;20540;-70
2022/05/17 02:10:17;;;;;;;2.90;1.77;;;;;;;15.22;100.00;101220.06;5033205;28;20470;-70
2022/05/17 02:12:45;;;;;;;3.00;1.50;;;;;;;15.13;100.00;101215.38;5033354;28;20450;-71
2022/05/17 02:15:13;;;;;;;3.83;1.97;;;;;;;15.06;100.00;101216.97;5033200;28;20431;-71
2022/05/17 02:17:39;;;;;;;2.67;1.53;;;;;;;15.07;100.00;101218.56;5033300;28;20466;-71
2022/05/17 02:20:09;;;;;;;2.50;1.13;;;;;;;15.14;100.00;101219.72;5033000;28;20881;-71
2022/05/17 02:22:36;;;;;;;1.70;1.40;;;;;;;15.15;100.00;101223.25;5033691;28;20439;-71
2022/05/17 02:25:03;;;;;;;5.33;1.60;;;;;;;15.16;100.00;101221.34;5033266;28;20489;-71
2022/05/17 02:27:29;;;;;;;3.63;2.20;;;;;;;15.10;100.00;101220.69;5033085;28;20525;-71
2022/05/17 02:29:57;;;;;;;3.40;1.53;;;;;;;15.08;100.00;101218.25;5033250;28;20450;-71
2022/05/17 02:32:25;;;;;;;6.93;2.03;;;;;;;15.07;100.00;101219.38;5033197;28;20449;-71
2022/05/17 02:34:51;;;;;;;6.50;1.50;;;;;;;15.10;100.00;101217.94;5033173;28;20477;-70
2022/05/17 02:37:18;;;;;;;2.63;1.80;;;;;;;15.08;100.00;101226.44;5033057;28;20521;-70
2022/05/17 02:39:45;;;;;;;2.43;1.63;;;;;;;15.08;100.00;101225.63;5033200;28;20489;-71
2022/05/17 02:42:12;;;;;;;2.63;1.77;;;;;;;15.08;100.00;101223.69;5033099;28;20497;-70
2022/05/17 02:44:39;;;;;;;4.00;1.80;;;;;;;15.11;100.00;101225.00;5033118;28;20449;-70
2022/05/17 02:47:07;;;;;;;4.33;1.90;;;;;;;15.02;100.00;101229.63;5033005;28;20471;-70
2022/05/17 02:49:33;;;;;;;4.40;2.27;;;;;;;15.00;100.00;101237.31;5032907;28;20894;-70
2022/05/17 02:52:01;;;;;;;4.63;2.27;;;;;;;15.00;100.00;101240.03;5032688;28;20451;-70
2022/05/17 02:54:27;;;;;;;4.87;1.63;;;;;;;15.01;100.00;101244.41;5033025;28;20454;-70
2022/05/17 02:56:53;;;;;;;2.20;1.97;;;;;;;15.00;100.00;101242.75;5032931;28;20522;-71
2022/05/17 02:59:20;;;;;;;2.40;1.43;;;;;;;15.03;100.00;101253.06;5032928;28;20446;-71
2022/05/17 03:01:47;;;;;;;5.73;2.40;;;;;;;15.03;100.00;101255.78;5032910;28;20538;-71
2022/05/17 03:04:15;;;;;;;3.97;1.60;;;;;;;15.04;100.00;101273.75;5033033;28;20447;-72
2022/05/17 03:06:43;;;;;;;6.40;1.80;;;;;;;15.04;100.00;101284.69;5032842;28;20471;-72
2022/05/17 03:09:09;;;;;;;2.30;1.37;;;;;;;14.96;100.00;101283.50;5032672;28;20483;-72
2022/05/17 03:11:36;;;;;;;3.40;1.93;;;;;;;14.89;100.00;101289.44;5032812;28;20450;-72
2022/05/17 03:14:03;;;;;;;3.00;1.90;;;;;;;14.76;100.00;101295.75;5033729;28;20960;-72
2022/05/17 03:16:30;;;;;;;2.67;1.87;;;;;;;14.60;100.00;101302.72;5032102;28;20490;-72
2022/05/17 03:18:57;;;;;;;2.83;1.97;;;;;;;14.46;100.00;101308.19;5035471;28;20435;-73
2022/05/17 03:21:24;;;;;;;4.60;2.03;;;;;;;14.50;100.00;101311.13;5036515;28;20451;-69
2022/05/17 03:23:51;;;;;;;2.20;1.57;;;;;;;14.50;100.00;101322.84;5036450;28;20439;-73
2022/05/17 03:26:17;;;;;;;3.70;1.70;;;;;;;14.35;100.00;101321.28;5036355;28;20478;-71
2022/05/17 03:28:44;;;;;;;1.87;1.50;;;;;;;14.19;100.00;101324.66;5036375;28;20892;-72
2022/05/17 03:31:11;;;;;;;5.97;1.73;;;;;;;14.18;100.00;101329.28;5036379;28;20454;-72
2022/05/17 03:33:38;;;;;;;7.00;1.50;;;;;;;14.10;100.00;101330.00;5036413;28;20451;-72
2022/05/17 03:36:05;;;;;;;4.57;2.50;;;;;;;14.01;100.00;101329.13;5036133;28;20466;-72
2022/05/17 03:38:34;;;;;;;3.00;2.20;;;;;;;13.96;100.00;101331.97;5036206;28;20500;-72
2022/05/17 03:41:01;;;;;;;7.93;2.33;;;;;;;13.98;100.00;101335.19;5036151;28;20454;-72
2022/05/17 03:43:28;;;;;;;2.43;1.93;;;;;;;13.99;100.00;101342.22;5036109;28;20442;-72
2022/05/17 03:45:54;;;;;;;2.83;2.10;;;;;;;13.97;100.00;101344.47;5036052;28;20520;-72
2022/05/17 03:48:21;;;;;;;5.40;2.73;;;;;;;13.87;100.00;101343.56;5035927;28;20491;-72
2022/05/17 03:50:48;;;;;;;3.40;2.03;;;;;;;13.83;100.00;101344.47;5035867;28;20964;-72
2022/05/17 03:53:14;;;;;;;5.10;2.30;;;;;;;13.85;100.00;101350.41;5035953;28;20443;-71
2022/05/17 03:55:42;;;;;;;2.20;1.70;;;;;;;13.95;100.00;101352.16;5036342;28;20458;-71
2022/05/17 03:58:09;;;;;;;3.80;1.50;;;;;;;13.89;100.00;101357.69;5035847;28;20443;-72
2022/05/17 04:00:36;;;;;;;2.30;1.73;;;;;;;13.81;100.00;101355.69;5035766;28;20447;-71
2022/05/17 04:03:02;;;;;;;4.80;2.07;;;;;;;13.81;100.00;101358.41;5035992;28;20439;-72
2022/05/17 04:05:29;;;;;;;7.30;2.77;;;;;;;13.79;100.00;101357.91;5035609;28;20445;-71
2022/05/17 04:07:56;;;;;;;2.87;1.50;;;;;;;13.76;100.00;101354.97;5035351;28;20450;-71
2022/05/17 04:10:23;;;;;;;2.20;1.80;;;;;;;13.78;100.00;101356.28;5035719;28;20485;-71
2022/05/17 04:12:51;;;;;;;4.43;2.33;;;;;;;13.79;100.00;101354.38;5035298;28;20944;-72
2022/05/17 04:15:20;;;;;;;3.20;2.17;;;;;;;13.80;100.00;101351.34;5035473;28;20443;-72
2022/05/17 04:17:47;;;;;;;2.77;2.00;;;;;;;13.84;100.00;101356.97;5035554;28;20467;-71
2022/05/17 04:20:15;;;;;;;5.57;2.53;;;;;;;13.87;100.00;101346.28;5035696;28;20443;-71
2022/05/17 04:22:43;;;;;;;2.10;1.33;;;;;;;13.86;100.00;101349.34;5035220;28;20493;-72
2022/05/17 04:25:11;;;;;;;2.90;1.70;;;;;;;13.87;100.00;101346.28;5035406;28;20522;-70
2022/05/17 04:27:37;;;;;;;3.43;2.07;;;;;;;13.81;100.00;101335.78;5035298;28;20499;-73
2022/05/17 04:30:06;;;;;;;3.60;2.50;;;;;;;13.80;100.00;101337.72;5034534;28;20483;-73
2022/05/17 04:32:33;;;;;;;3.57;2.30;;;;;;;13.82;100.00;101340.97;5035404;28;20450;-73
2022/05/17 04:35:00;;;;;;;5.13;1.83;;;;;;;13.75;100.00;101332.38;5034912;28;20932;-73
2022/05/17 04:37:27;;;;;;;4.20;2.87;;;;;;;13.68;100.00;101331.16;5035317;28;20467;-75
2022/05/17 04:39:53;;;;;;;2.60;1.60;;;;;;;13.71;100.00;101327.84;5034722;28;20835;-72
2022/05/17 04:42:20;;;;;;;2.00;1.80;;;;;;;13.72;100.00;101329.44;5034750;28;20451;-73
2022/05/17 04:44:46;;;;;;;3.43;2.20;;;;;;;13.77;100.00;101332.91;5034653;28;20442;-73
2022/05/17 04:47:14;;;;;;;3.87;2.40;;;;;;;13.81;100.00;101335.78;5034473;28;20478;-73
2022/05/17 04:49:40;;;;;;;3.13;2.10;;;;;;;13.87;100.00;101334.59;5034483;28;20525;-73
2022/05/17 04:52:08;;;;;;;3.53;2.10;;;;;;;13.94;100.00;101342.34;5034223;28;20862;-74
2022/05/17 04:54:35;;;;;;;4.27;2.17;;;;;;;13.97;100.00;101339.00;5034584;28;20819;-73
2022/05/17 04:57:01;;;;;;;3.93;2.67;;;;;;;13.91;100.00;101330.16;5034786;28;20502;-73
2022/05/17 04:59:27;;;;;;;3.50;2.60;;;;;;;13.94;100.00;101336.91;5034917;28;20447;-73
2022/05/17 05:01:54;;;;;;;7.47;2.80;;;;;;;13.98;100.00;101330.53;5034634;28;20443;-73
2022/05/17 05:04:22;;;;;;;3.03;1.60;;;;;;;14.06;100.00;101320.84;5034588;28;20443;-74
2022/05/17 05:06:48;;;;;;;2.90;2.00;;;;;;;14.06;100.00;101321.63;5034574;28;20834;-74
2022/05/17 05:09:14;;;;;;;3.47;2.47;;;;;;;14.06;100.00;101326.28;5034514;28;20487;-73
2022/05/17 05:11:41;;;;;;;2.60;1.93;;;;;;;14.01;100.00;101337.31;5034554;28;20451;-73
2022/05/17 05:14:08;;;;;;;4.17;2.50;;;;;;;14.08;100.00;101321.34;5034532;28;20450;-74
2022/05/17 05:16:37;;;;;;;5.90;2.67;;;;;;;14.04;100.00;101325.81;5034259;28;20479;-73
2022/05/17 05:19:03;;;;;;;2.90;2.07;;;;;;;14.08;100.00;101318.63;5034063;28;20821;-74
2022/05/17 05:21:31;;;;;;;3.90;1.97;;;;;;;14.08;100.00;101346.69;5034346;28;20497;-73
2022/05/17 05:23:57;;;;;;;3.70;2.33;;;;;;;13.86;100.00;101341.16;5034320;28;20500;-74
2022/05/17 05:26:24;;;;;;;3.33;1.70;;;;;;;13.80;100.00;101340.44;5033809;28;20987;-72
2022/05/17 05:28:50;;;;;;;4.67;2.10;;;;;;;13.84;100.00;101344.16;5034073;28;20843;-71
2022/05/17 05:31:17;;;;;;;3.93;2.90;;;;;;;13.91;100.00;101351.16;5034417;28;20466;-69
2022/05/17 05:33:44;;;;;;;4.63;2.00;;;;;;;13.91;100.00;101345.69;5034078;28;20454;-69
2022/05/17 05:36:11;;;;;;;3.13;2.30;;;;;;;13.97;100.00;101341.75;5033771;28;20474;-68
2022/05/17 05:38:39;;;;;;;4.03;2.40;;;;;;;14.00;100.00;101354.75;5033909;28;20542;-70
2022/05/17 05:41:05;;;;;;;4.87;2.47;;;;;;;14.04;100.00;101359.28;5033185;28;20505;-69
2022/05/17 05:43:32;;;;;;;4.37;2.50;;;;;;;14.06;100.00;101364.44;5033368;28;20446;-70
2022/05/17 05:45:58;;;;;;;3.10;2.57;;;;;;;14.12;100.00;101363.19;5033768;28;20467;-70
2022/05/17 05:48:25;;;;;;;5.07;3.00;;;;;;;14.10;100.00;101359.97;5033754;28;20458;-70
2022/05/17 05:50:52;;;;;;;3.93;3.27;;;;;;;14.08;100.00;101360.28;5033690;28;20487;-70
2022/05/17 05:53:19;;;;;;;4.70;2.67;;;;;;;14.08;100.00;101360.28;5033787;28;20443;-70
2022/05/17 05:55:51;;;;;;;6.23;2.30;;;;;;;14.12;100.00;101363.19;5033294;28;20459;-70
2022/05/17 05:58:18;;;;;;;2.50;2.13;;;;;;;14.08;100.00;101370.41;5033673;28;20434;-70
2022/05/17 06:00:45;;;;;;;3.70;2.33;;;;;;;14.16;100.00;101358.75;5033352;28;20447;-68
2022/05/17 06:03:12;;;;;;;4.60;2.40;;;;;;;14.19;100.00;101365.50;5033535;28;20447;-73
2022/05/17 06:05:38;;;;;;;2.57;2.33;;;;;;;14.24;100.00;101370.84;5033358;28;20458;-72
2022/05/17 06:08:05;;;;;;;4.07;2.13;;;;;;;14.27;100.00;101371.06;5033386;28;20869;-70
2022/05/17 06:10:32;;;;;;;3.37;2.83;;;;;;;14.35;100.00;101372.25;5033340;28;20479;-70
2022/05/17 06:13:00;;;;;;;3.43;2.13;;;;;;;14.43;100.00;101373.41;5033638;28;20529;-71
2022/05/17 06:15:26;;;;;;;2.90;2.27;;;;;;;14.49;100.00;101367.59;5033168;28;20485;-71
2022/05/17 06:17:52;;;;;;;2.93;1.97;;;;;;;14.59;100.00;101377.44;5033401;28;20430;-71
2022/05/17 06:20:19;;;;;;;3.90;2.33;;;;;;;14.67;100.00;101378.63;5034015;28;20446;-70
2022/05/17 06:22:46;;;;;;;4.27;2.57;;;;;;;14.72;100.00;101381.25;5033324;28;20446;-72
2022/05/17 06:25:13;;;;;;;3.63;2.33;;;;;;;14.74;100.00;101385.28;5033169;28;20450;-72
2022/05/17 06:27:39;;;;;;;4.20;2.50;;;;;;;14.75;100.00;101386.09;5032914;28;20980;-70
2022/05/17 06:30:11;;;;;;;3.00;2.50;;;;;;;14.75;100.00;101397.78;5033215;28;20492;-71
2022/05/17 06:32:38;;;;;;;3.83;2.77;;;;;;;14.82;100.00;101400.06;5033292;28;20530;-69
2022/05/17 06:35:05;;;;;;;4.83;2.67;;;;;;;14.88;100.00;101405.13;5033423;28;20447;-68
2022/05/17 06:37:32;;;;;;;3.30;2.90;;;;;;;14.91;100.00;101397.41;5033285;28;20459;-70
2022/05/17 06:39:59;;;;;;;2.80;1.93;;;;;;;14.96;100.00;101397.28;5033511;28;20439;-69
2022/05/17 06:42:27;;;;;;;10.63;2.70;;;;;;;14.96;100.00;101402.75;5033223;28;20442;-71
2022/05/17 06:44:54;;;;;;;5.20;2.60;;;;;;;14.99;100.00;101399.41;5033489;28;20542;-70
2022/05/17 06:47:22;;;;;;;5.00;2.63;;;;;;;15.09;100.00;101399.13;5032790;28;20470;-70
2022/05/17 06:49:48;;;;;;;4.47;3.13;;;;;;;15.21;100.00;101404.84;5033006;28;20892;-68
2022/05/17 06:52:16;;;;;;;5.43;3.00;;;;;;;15.33;100.00;101407.81;5033078;28;20443;-70
2022/05/17 06:54:43;;;;;;;3.90;2.30;;;;;;;15.47;100.00;101398.72;5036820;28;20937;-72
2022/05/17 06:57:11;;;;;;;4.27;2.50;;;;;;;15.54;100.00;101412.75;5036666;28;20845;-69
2022/05/17 06:59:40;;;;;;;7.00;2.60;;;;;;;15.58;100.00;101419.16;5036906;28;20439;-69
2022/05/17 07:02:08;;;;;;;5.37;3.03;;;;;;;15.71;100.00;101421.03;5036851;28;20534;-69
2022/05/17 07:04:37;;;;;;;3.87;2.47;;;;;;;15.86;100.00;101426.09;5037174;28;20447;-69
2022/05/17 07:07:05;;;;;;;5.67;3.30;;;;;;;15.97;100.00;101425.78;5036771;28;20525;-69
2022/05/17 07:09:32;;;;;;;3.67;2.80;;;;;;;16.07;100.00;101426.31;5036430;28;20482;-68
2022/05/17 07:14:43;;;;;;;3.10;2.10;;;;;;;16.08;100.00;101457.19;5036622;28;20410;-69
2022/05/17 07:17:13;;;;;;;2.20;2.00;;;;;;;16.12;100.00;101455.44;5036297;28;20478;-68
2022/05/17 07:19:41;;;;;;;4.20;2.90;;;;;;;16.05;100.00;101441.41;5036981;28;20858;-68
2022/05/17 07:22:08;;;;;;;7.10;2.70;;;;;;;16.19;100.00;101444.00;5036701;28;20454;-68
2022/05/17 07:24:36;;;;;;;4.57;2.87;;;;;;;16.16;100.00;101450.94;5036522;28;20442;-68
2022/05/17 07:27:05;;;;;;;5.93;3.10;;;;;;;16.12;100.00;101453.50;5036462;28;20459;-68
2022/05/17 07:29:33;;;;;;;5.20;2.47;;;;;;;16.12;100.00;101447.22;5036390;28;20930;-68
2022/05/17 07:31:59;;;;;;;5.23;2.63;;;;;;;16.11;100.00;101448.34;5036657;28;20438;-69
2022/05/17 07:34:27;;;;;;;4.37;2.90;;;;;;;16.17;100.00;101455.28;5036452;28;20474;-68
2022/05/17 07:36:55;;;;;;;5.60;3.53;;;;;;;16.19;100.00;101455.75;5036224;28;20470;-70
2022/05/17 07:39:23;;;;;;;5.03;2.83;;;;;;;16.16;100.00;101456.41;5036419;28;20446;-70
2022/05/17 07:41:50;;;;;;;4.27;2.63;;;;;;;16.19;100.00;101461.22;5036199;28;20439;-71
2022/05/17 07:44:16;;;;;;;4.77;2.93;;;;;;;16.26;100.00;101466.25;5036142;28;20534;-70
2022/05/17 07:46:43;;;;;;;3.20;2.70;;;;;;;16.28;100.00;101469.44;5035794;28;20557;-71
2022/05/17 07:49:10;;;;;;;3.77;3.10;;;;;;;16.30;100.00;101469.94;5036052;28;20538;-71
2022/05/17 07:51:36;;;;;;;3.77;2.60;;;;;;;16.39;100.00;101474.31;5036025;28;20482;-71
2022/05/17 07:54:04;;;;;;;5.03;2.63;;;;;;;16.39;100.00;101478.97;5035633;28;20962;-71
2022/05/17 07:56:31;;;;;;;2.97;2.50;;;;;;;16.46;100.00;101473.03;5035855;28;20467;-72
2022/05/17 07:58:57;;;;;;;8.00;3.50;;;;;;;16.49;100.00;101478.66;5035521;28;20447;-69
2022/05/17 08:01:24;;;;;;;6.30;3.67;;;;;;;16.68;100.00;101474.84;5035805;28;20435;-74
2022/05/17 08:03:50;;;;;;;7.00;2.80;;;;;;;16.91;100.00;101476.34;5034984;28;20443;-74
2022/05/17 08:06:16;;;;;;;3.93;2.70;;;;;;;17.13;100.00;101489.03;5035114;28;20466;-74
2022/05/17 08:08:43;;;;;;;5.57;3.50;;;;;;;17.27;100.00;101488.88;5035361;28;20825;-74
2022/05/17 08:11:11;;;;;;;4.40;2.90;;;;;;;17.30;100.00;101493.69;5035262;28;21003;-74
2022/05/17 08:13:37;;;;;;;5.77;3.37;;;;;;;17.09;100.00;101504.53;5035601;28;20493;-74
2022/05/17 08:16:04;;;;;;;4.13;3.13;;;;;;;17.08;100.00;101498.22;5035257;28;20471;-74
2022/05/17 08:18:31;;;;;;;5.10;2.00;;;;;;;17.11;100.00;101505.00;5035558;28;20869;-74
2022/05/17 08:20:58;;;;;;;11.10;2.90;;;;;;;17.19;100.00;101506.94;5035181;28;20932;-74
2022/05/17 08:23:24;;;;;;;2.17;1.77;;;;;;;17.24;100.00;101514.97;5035391;28;20447;-73
2022/05/17 08:28:36;;;;;;;3.80;2.63;;;;;;;17.24;99.52;101514.16;5035228;28;20913;-73
2022/05/17 08:31:02;;;;;;;4.80;3.67;;;;;;;17.22;98.93;101519.97;5035064;28;20483;-69
2022/05/17 08:33:30;;;;;;;7.37;2.70;;;;;;;17.36;99.28;101509.66;5034896;28;20893;-72
2022/05/17 08:35:58;;;;;;;5.00;3.60;;;;;;;17.49;99.41;101507.06;5035130;28;20556;-72
2022/05/17 08:38:28;;;;;;;3.13;2.23;;;;;;;17.55;98.52;101512.03;5035097;28;20443;-72
2022/05/17 08:41:01;;;;;;;13.43;3.50;;;;;;;17.67;97.08;101516.84;5035057;28;20473;-71
2022/05/17 08:43:33;;;;;;;7.80;3.87;;;;;;;17.76;96.85;101511.38;5035218;28;20526;-72
2022/05/17 08:46:35;;;;;;;3.93;2.80;;;;;;;17.82;97.29;101510.88;5034921;28;20501;-75
2022/05/17 08:49:08;;;;;;;6.23;3.03;;;;;;;18.00;96.49;101516.28;5035034;28;20462;-71
2022/05/17 08:51:40;;;;;;;4.17;3.07;;;;;;;18.18;97.41;101512.34;5034935;28;20471;-70
2022/05/17 08:54:10;;;;;;;6.30;2.57;;;;;;;18.35;96.52;101525.97;5034818;28;20427;-70
2022/05/17 08:56:39;;;;;;;3.87;2.90;;;;;;;18.44;95.99;101525.13;5034739;28;20474;-69
2022/05/17 08:59:07;;;;;;;5.00;3.40;;;;;;;18.60;95.99;101517.94;5034670;28;20454;-72
2022/05/17 09:01:43;;;;;;;4.93;3.20;;;;;;;18.80;94.44;101524.59;5034669;28;20843;-69
2022/05/17 09:04:47;;;;;;;6.10;2.60;;;;;;;18.85;90.80;101527.94;5034713;28;20446;-69
2022/05/17 09:07:21;;;;;;;3.50;2.80;;;;;;;18.95;91.24;101524.03;5023066;28;20471;-69
2022/05/17 09:10:01;;;;;;;2.73;2.20;;;;;;;19.03;89.95;101527.81;5034482;28;20812;-69
2022/05/17 09:12:40;;;;;;;4.00;2.70;;;;;;;19.01;89.49;101530.13;5034238;28;20471;-69
2022/05/17 09:15:08;;;;;;;6.50;2.83;;;;;;;19.16;88.52;101537.72;5035447;28;20836;-70
2022/05/17 09:17:36;;;;;;;5.20;1.90;;;;;;;19.18;88.15;101532.72;5034262;28;20505;-70
2022/05/17 09:20:04;;;;;;;6.87;2.70;;;;;;;19.13;86.92;101538.41;5034314;28;20439;-70
2022/05/17 09:22:31;;;;;;;3.70;2.00;;;;;;;19.00;86.26;101531.25;5034296;28;20446;-71
2022/05/17 09:25:00;;;;;;;2.60;2.13;;;;;;;19.03;85.40;101528.63;5033899;28;20447;-71
2022/05/17 09:27:30;;;;;;;3.00;2.23;;;;;;;19.15;85.30;101538.88;5034381;28;20463;-71
2022/05/17 09:30:05;;;;;;;3.30;2.17;;;;;;;19.33;85.77;101537.59;5034003;28;20500;-71
2022/05/17 09:32:33;;;;;;;4.63;2.67;;;;;;;19.58;87.32;101552.22;5034126;28;20419;-70
2022/05/17 09:35:09;;;;;;;2.80;1.87;;;;;;;19.70;86.31;101545.19;5034106;28;20439;-71
2022/05/17 09:37:39;;;;;;;3.63;1.93;;;;;;;19.68;82.71;101540.03;5033950;28;20470;-71
2022/05/17 09:40:09;;;;;;;1.93;1.73;;;;;;;19.75;83.48;101542.25;5033925;28;20446;-71
2022/05/17 09:42:44;;;;;;;5.13;2.30;;;;;;;19.61;81.66;101548.03;5033887;28;20439;-71
2022/05/17 09:45:16;;;;;;;3.10;1.90;;;;;;;19.51;81.61;101551.16;5033914;28;20431;-71
2022/05/17 09:47:44;;;;;;;2.00;1.63;;;;;;;19.36;80.34;101550.66;5033496;28;20879;-71
2022/05/17 09:53:01;;;;;;;2.40;1.77;;;;;;;19.46;83.58;101556.88;5033562;28;20414;-71
2022/05/17 09:55:30;;;;;;;16.93;2.43;;;;;;;19.39;82.72;101555.50;5033635;28;20478;-71
2022/05/17 09:58:03;;;;;;;2.70;2.20;;;;;;;19.11;83.81;101559.91;5033636;28;20516;-71
2022/05/17 10:00:34;;;;;;;3.23;2.40;;;;;;;18.92;84.04;101563.13;5033681;28;20494;-71
2022/05/17 10:03:04;;;;;;;2.90;2.10;;;;;;;18.96;82.00;101557.78;5033666;28;20512;-71
2022/05/17 10:05:46;;;;;;;2.70;1.77;;;;;;;18.90;82.53;101557.97;5033467;28;20447;-72
2022/05/17 10:08:39;;;;;;;3.30;2.20;;;;;;;18.95;81.12;101548.75;5033570;28;20708;-71
2022/05/17 10:11:13;;;;;;;3.57;2.57;;;;;;;19.01;81.67;101549.34;5033652;28;20474;-72
2022/05/17 10:13:51;;;;;;;3.13;1.60;;;;;;;19.02;80.33;101556.44;5033489;28;20418;-71
2022/05/17 10:16:27;;;;;;;3.43;2.30;;;;;;;19.05;82.30;101558.50;5033268;28;20506;-71
2022/05/17 10:18:58;;;;;;;2.67;2.10;;;;;;;19.22;84.56;101554.84;5033704;28;20431;-71
2022/05/17 10:21:34;;;;;;;2.80;1.93;;;;;;;19.30;82.21;101563.00;5033081;28;20428;-72
2022/05/17 10:24:06;;;;;;;2.83;2.20;;;;;;;19.47;80.22;101561.22;5033012;28;20514;-72
2022/05/17 10:26:37;;;;;;;3.37;2.67;;;;;;;19.66;80.30;101553.31;5033270;28;20509;-72
2022/05/17 10:29:09;;;;;;;2.50;1.80;;;;;;;19.78;79.85;101560.78;5032691;28;20434;-72
2022/05/17 10:31:43;;;;;;;4.40;2.87;;;;;;;19.71;78.32;101561.34;5033234;28;20518;-72
2022/05/17 10:34:25;;;;;;;2.63;2.07;;;;;;;19.81;77.51;101560.91;5033216;28;20419;-72
2022/05/17 10:36:59;;;;;;;3.87;2.33;;;;;;;20.09;77.60;101560.28;5033137;28;20462;-72
2022/05/17 10:39:31;;;;;;;5.93;2.83;;;;;;;20.25;75.96;101561.22;5033269;28;20431;-72
2022/05/17 10:41:58;;;;;;;7.20;2.27;;;;;;;20.16;74.64;101555.84;5033156;28;20791;-72
2022/05/17 10:44:37;;;;;;;3.33;2.13;;;;;;;20.37;74.43;101561.25;5033206;28;20447;-72
2022/05/17 10:47:12;;;;;;;8.73;3.40;;;;;;;20.65;75.24;101563.31;5033160;28;20465;-72
2022/05/17 10:49:50;;;;;;;2.30;1.80;;;;;;;20.65;75.00;101564.13;5033104;28;20492;-72
2022/05/17 10:52:28;;;;;;;3.87;2.50;;;;;;;20.80;76.41;101559.84;5032774;28;20498;-72
2022/05/17 10:55:04;;;;;;;2.00;1.77;;;;;;;20.89;74.80;101566.06;5032712;28;20430;-72
2022/05/17 10:57:42;;;;;;;6.33;2.43;;;;;;;20.77;73.38;101570.78;5033019;28;20463;-72
2022/05/17 11:00:14;;;;;;;3.50;2.20;;;;;;;20.83;74.15;101577.66;5032979;28;20431;-72
2022/05/17 11:03:06;;;;;;;3.33;2.33;;;;;;;20.80;75.12;101573.63;5032989;28;20521;-72
2022/05/17 11:05:43;;;;;;;4.80;2.33;;;;;;;20.82;73.07;101585.09;5032912;28;20467;-71
2022/05/17 11:08:25;;;;;;;5.80;2.53;;;;;;;20.82;72.88;101585.09;5032901;28;20427;-72
2022/05/17 11:11:04;;;;;;;3.57;2.40;;;;;;;21.03;73.43;101584.13;5032836;28;20899;-72
2022/05/17 11:13:35;;;;;;;5.63;1.93;;;;;;;21.07;72.43;101588.63;5032935;28;20435;-72
2022/05/17 11:16:09;;;;;;;3.00;2.00;;;;;;;21.28;72.09;101584.88;5032517;28;20483;-72
2022/05/17 11:18:43;;;;;;;3.10;2.00;;;;;;;21.45;72.60;101587.38;5032579;28;20936;-72
2022/05/17 11:21:17;;;;;;;5.47;2.67;;;;;;;21.64;71.35;101589.47;5032840;28;20447;-72
2022/05/17 11:23:52;;;;;;;3.70;2.30;;;;;;;21.78;70.68;101584.38;5032850;28;20431;-72
2022/05/17 11:26:55;;;;;;;4.73;1.93;;;;;;;21.91;68.41;101580.41;5032824;28;20928;-72
2022/05/17 11:29:53;;;;;;;4.80;2.30;;;;;;;22.24;66.86;101584.81;5032811;28;20455;-71
2022/05/17 11:32:26;;;;;;;3.40;2.27;;;;;;;22.46;65.58;101575.09;5032683;28;20470;-73
2022/05/17 11:34:54;;;;;;;3.87;2.10;;;;;;;22.39;64.87;101581.22;5032350;28;21015;-72
2022/05/17 11:37:47;;;;;;;3.07;2.27;;;;;;;22.46;67.79;101574.28;5032561;28;20463;-72
2022/05/17 11:40:52;;;;;;;2.33;1.77;;;;;;;22.82;67.71;101578.69;5035641;28;20520;-72